createdAt,value
2017-08-16T00:00:51.206Z,21.53
2017-08-16T00:03:17.831Z,19.87
2017-08-16T00:05:44.466Z,23.03
2017-08-16T00:08:11.121Z,23.40
2017-08-16T00:10:37.777Z,22.07
2017-08-16T00:13:04.407Z,23.73
2017-08-16T00:15:31.063Z,23.30
2017-08-16T00:17:57.662Z,23.77
2017-08-16T00:20:24.292Z,23.03
2017-08-16T00:22:50.928Z,22.07
2017-08-16T00:25:17.565Z,23.03
2017-08-16T00:27:44.285Z,24.73
2017-08-16T00:30:10.900Z,25.13
2017-08-16T00:32:37.548Z,25.70
2017-08-16T00:35:04.203Z,23.43
2017-08-16T00:37:30.828Z,24.93
2017-08-16T00:39:57.782Z,22.40
2017-08-16T00:42:25.411Z,22.70
2017-08-16T00:44:52.086Z,22.87
2017-08-16T00:47:18.787Z,24.03
2017-08-16T00:49:45.424Z,23.10
2017-08-16T00:52:12.101Z,23.83
2017-08-16T00:54:38.735Z,24.00
2017-08-16T00:57:05.548Z,23.23
2017-08-16T00:59:32.188Z,24.70
2017-08-16T01:01:58.849Z,26.77
2017-08-16T01:04:25.479Z,27.23
2017-08-16T01:06:52.117Z,27.13
2017-08-16T01:09:18.755Z,27.30
2017-08-16T01:11:45.963Z,28.70
2017-08-16T01:14:12.595Z,29.33
2017-08-16T01:16:39.230Z,30.70
2017-08-16T01:19:05.886Z,29.93
2017-08-16T01:21:32.551Z,27.67
2017-08-16T01:23:59.167Z,28.07
2017-08-16T01:26:25.817Z,28.60
2017-08-16T01:28:52.448Z,27.23
2017-08-16T01:31:19.107Z,31.47
2017-08-16T01:33:45.723Z,30.93
2017-08-16T01:36:12.343Z,28.70
2017-08-16T01:38:39.260Z,30.37
2017-08-16T01:41:05.899Z,32.40
2017-08-16T01:43:32.544Z,30.43
2017-08-16T01:45:59.199Z,33.07
2017-08-16T01:48:25.807Z,32.70
2017-08-16T01:50:52.455Z,33.17
2017-08-16T01:53:19.077Z,32.80
2017-08-16T01:55:45.741Z,34.00
2017-08-16T01:58:12.399Z,33.67
2017-08-16T02:00:39.022Z,35.93
2017-08-16T02:03:05.634Z,35.63
2017-08-16T02:05:32.299Z,42.80
2017-08-16T02:07:58.936Z,39.33
2017-08-16T02:10:25.544Z,40.57
2017-08-16T02:12:52.200Z,36.83
2017-08-16T02:15:18.811Z,38.93
2017-08-16T02:17:45.511Z,40.73
2017-08-16T02:20:12.202Z,39.17
2017-08-16T02:22:38.844Z,41.17
2017-08-16T02:25:05.476Z,39.67
2017-08-16T02:27:32.106Z,44.63
2017-08-16T02:29:58.751Z,47.03
2017-08-16T02:32:25.493Z,44.50
2017-08-16T02:34:52.126Z,43.27
2017-08-16T02:37:18.756Z,42.07
2017-08-16T02:39:45.391Z,44.90
2017-08-16T02:42:12.006Z,43.07
2017-08-16T02:44:38.672Z,41.10
2017-08-16T02:47:05.324Z,42.77
2017-08-16T02:49:31.956Z,44.07
2017-08-16T02:51:58.614Z,41.90
2017-08-16T02:54:25.228Z,42.53
2017-08-16T02:56:51.868Z,43.80
2017-08-16T02:59:18.484Z,46.70
2017-08-16T03:01:45.103Z,44.83
2017-08-16T03:04:11.750Z,43.57
2017-08-16T03:06:38.448Z,44.40
2017-08-16T03:09:05.060Z,49.23
2017-08-16T03:11:31.698Z,44.10
2017-08-16T03:13:58.322Z,47.33
2017-08-16T03:16:24.967Z,44.93
2017-08-16T03:18:51.595Z,49.60
2017-08-16T03:21:18.222Z,48.50
2017-08-16T03:23:44.873Z,51.23
2017-08-16T03:26:11.511Z,51.83
2017-08-16T03:28:38.127Z,51.60
2017-08-16T03:31:04.775Z,52.00
2017-08-16T03:33:31.398Z,50.70
2017-08-16T03:35:58.313Z,53.93
2017-08-16T03:38:24.976Z,51.27
2017-08-16T03:40:51.609Z,48.73
2017-08-16T03:43:18.228Z,49.43
2017-08-16T03:45:44.879Z,48.70
2017-08-16T03:48:11.496Z,50.37
2017-08-16T03:50:38.156Z,49.33
2017-08-16T03:53:04.793Z,53.67
2017-08-16T03:55:31.450Z,55.17
2017-08-16T03:57:58.080Z,53.90
2017-08-16T04:00:24.724Z,53.07
2017-08-16T04:02:51.354Z,53.40
2017-08-16T04:05:17.985Z,51.30
2017-08-16T04:07:44.615Z,51.43
2017-08-16T04:10:11.253Z,52.40
2017-08-16T04:12:37.887Z,52.97
2017-08-16T04:15:04.511Z,55.97
2017-08-16T04:17:31.157Z,50.53
2017-08-16T04:19:58.616Z,52.53
2017-08-16T04:22:25.227Z,53.57
2017-08-16T04:24:52.229Z,54.27
2017-08-16T04:27:18.853Z,55.23
2017-08-16T04:29:45.481Z,53.47
2017-08-16T04:32:12.140Z,55.70
2017-08-16T04:34:38.758Z,53.37
2017-08-16T04:37:05.424Z,54.03
2017-08-16T04:39:32.047Z,52.50
2017-08-16T04:41:58.659Z,50.93
2017-08-16T04:44:25.319Z,56.20
2017-08-16T04:46:51.954Z,56.53
2017-08-16T04:49:18.575Z,51.30
2017-08-16T04:51:45.204Z,54.17
2017-08-16T04:54:11.838Z,51.80
2017-08-16T04:56:38.459Z,56.43
2017-08-16T04:59:05.091Z,56.57
2017-08-16T05:01:31.728Z,52.53
2017-08-16T05:03:58.378Z,57.00
2017-08-16T05:06:25.006Z,51.17
2017-08-16T05:08:51.628Z,56.03
2017-08-16T05:11:18.287Z,52.57
2017-08-16T05:13:44.892Z,54.90
2017-08-16T05:16:11.543Z,54.13
2017-08-16T05:18:38.179Z,59.70
2017-08-16T05:21:04.863Z,57.20
2017-08-16T05:23:31.471Z,52.20
2017-08-16T05:25:58.102Z,53.87
2017-08-16T05:28:24.746Z,53.07
2017-08-16T05:30:51.366Z,54.30
2017-08-16T05:33:18.015Z,54.80
2017-08-16T05:35:44.636Z,54.37
2017-08-16T05:38:11.267Z,53.80
2017-08-16T05:40:37.903Z,53.47
2017-08-16T05:43:04.544Z,53.60
2017-08-16T05:45:31.160Z,53.70
2017-08-16T05:47:57.802Z,54.00
2017-08-16T05:50:24.429Z,55.23
2017-08-16T05:52:51.076Z,55.77
2017-08-16T05:55:17.682Z,57.83
2017-08-16T05:57:44.333Z,57.07
2017-08-16T06:00:10.954Z,57.03
2017-08-16T06:02:37.576Z,57.00
2017-08-16T06:05:04.208Z,60.07
2017-08-16T06:07:30.839Z,60.90
2017-08-16T06:09:57.442Z,61.17
2017-08-16T06:12:24.101Z,57.33
2017-08-16T06:14:50.730Z,62.70
2017-08-16T06:17:17.375Z,59.27
2017-08-16T06:19:44.001Z,56.67
2017-08-16T06:22:10.638Z,61.37
2017-08-16T06:24:37.252Z,61.90
2017-08-16T06:27:03.886Z,62.90
2017-08-16T06:29:30.534Z,63.83
2017-08-16T06:31:57.178Z,63.77
2017-08-16T06:34:23.827Z,65.10
2017-08-16T06:36:50.485Z,62.63
2017-08-16T06:39:17.138Z,65.17
2017-08-16T06:41:43.767Z,66.50
2017-08-16T06:44:10.834Z,69.87
2017-08-16T06:46:37.499Z,70.07
2017-08-16T06:49:04.132Z,73.67
2017-08-16T06:51:30.756Z,75.87
2017-08-16T06:53:57.411Z,75.67
2017-08-16T06:56:24.074Z,81.90
2017-08-16T06:58:50.710Z,75.63
2017-08-16T07:01:17.784Z,70.93
2017-08-16T07:03:44.400Z,75.33
2017-08-16T07:06:11.047Z,80.47
2017-08-16T07:08:37.702Z,72.90
2017-08-16T07:11:05.154Z,74.87
2017-08-16T07:13:31.796Z,72.30
2017-08-16T07:15:58.475Z,72.53
2017-08-16T07:18:25.113Z,67.57
2017-08-16T07:20:51.793Z,66.50
2017-08-16T07:23:18.419Z,73.10
2017-08-16T07:25:45.042Z,70.57
2017-08-16T07:28:11.676Z,63.70
2017-08-16T07:30:38.290Z,66.07
2017-08-16T07:33:04.950Z,67.03
2017-08-16T07:35:31.598Z,61.43
2017-08-16T07:37:58.206Z,46.47
2017-08-16T07:40:24.834Z,48.70
2017-08-16T07:42:51.456Z,47.87
2017-08-16T07:45:18.150Z,47.73
2017-08-16T07:47:44.759Z,44.00
2017-08-16T07:50:11.386Z,43.20
2017-08-16T07:52:38.027Z,42.43
2017-08-16T07:55:04.655Z,40.90
2017-08-16T07:57:31.307Z,42.70
2017-08-16T07:59:58.779Z,42.67
2017-08-16T08:02:25.438Z,42.17
2017-08-16T08:04:52.056Z,38.73
2017-08-16T08:07:18.676Z,50.10
2017-08-16T08:09:45.332Z,49.00
2017-08-16T08:12:11.968Z,46.73
2017-08-16T08:14:38.598Z,48.70
2017-08-16T08:17:05.221Z,48.77
2017-08-16T08:19:31.871Z,44.63
2017-08-16T08:21:58.498Z,41.10
2017-08-16T08:24:25.150Z,43.30
2017-08-16T08:26:53.016Z,44.93
2017-08-16T08:29:19.643Z,48.13
2017-08-16T08:31:46.286Z,52.63
2017-08-16T08:34:12.919Z,52.93
2017-08-16T08:36:39.565Z,54.80
2017-08-16T08:39:06.193Z,56.63
2017-08-16T08:41:32.835Z,54.23
2017-08-16T08:43:59.479Z,54.83
2017-08-16T08:46:26.118Z,52.67
2017-08-16T08:48:52.746Z,48.37
2017-08-16T08:51:19.379Z,49.07
2017-08-16T08:53:46.008Z,45.70
2017-08-16T08:56:12.648Z,47.27
2017-08-16T08:58:39.291Z,42.10
2017-08-16T09:01:05.903Z,42.37
2017-08-16T09:03:32.538Z,40.83
2017-08-16T09:05:59.179Z,40.37
2017-08-16T09:08:25.822Z,39.13
2017-08-16T09:10:52.472Z,31.50
2017-08-16T09:13:19.137Z,33.20
2017-08-16T09:15:45.770Z,34.77
2017-08-16T09:18:12.408Z,28.27
2017-08-16T09:20:39.035Z,29.23
2017-08-16T09:23:05.658Z,27.53
2017-08-16T09:25:32.313Z,25.83
2017-08-16T09:27:58.932Z,24.80
2017-08-16T09:30:25.581Z,23.23
2017-08-16T09:32:52.250Z,20.37
2017-08-16T09:35:18.859Z,24.43
2017-08-16T09:37:45.500Z,21.07
2017-08-16T09:40:12.121Z,19.40
2017-08-16T09:42:38.745Z,18.13
2017-08-16T09:45:06.099Z,21.70
2017-08-16T09:47:32.715Z,20.53
2017-08-16T09:49:59.358Z,21.83
2017-08-16T09:52:25.992Z,18.23
2017-08-16T09:54:52.643Z,18.73
2017-08-16T09:57:19.264Z,19.97
2017-08-16T09:59:45.899Z,19.93
2017-08-16T10:02:12.540Z,20.10
2017-08-16T10:04:39.207Z,20.53
2017-08-16T10:07:05.844Z,22.17
2017-08-16T10:09:32.716Z,19.93
2017-08-16T10:11:59.330Z,21.10
2017-08-16T10:14:25.986Z,20.70
2017-08-16T10:16:52.642Z,21.37
2017-08-16T10:19:19.255Z,22.17
2017-08-16T10:21:45.911Z,17.40
2017-08-16T10:24:12.523Z,17.50
2017-08-16T10:26:39.160Z,18.10
2017-08-16T10:29:05.810Z,16.23
2017-08-16T10:31:32.418Z,18.13
2017-08-16T10:33:59.065Z,17.53
2017-08-16T10:36:25.694Z,15.17
2017-08-16T10:38:52.345Z,16.10
2017-08-16T10:41:18.962Z,16.33
2017-08-16T10:43:45.986Z,15.23
2017-08-16T10:46:12.613Z,16.20
2017-08-16T10:48:39.253Z,19.23
2017-08-16T10:51:05.919Z,16.83
2017-08-16T10:53:32.544Z,15.47
2017-08-16T10:55:59.579Z,12.60
2017-08-16T10:58:26.199Z,12.50
2017-08-16T11:00:52.858Z,12.53
2017-08-16T11:03:19.484Z,13.77
2017-08-16T11:05:46.110Z,11.93
2017-08-16T11:08:12.751Z,11.00
2017-08-16T11:10:39.382Z,11.10
2017-08-16T11:13:06.027Z,9.80
2017-08-16T11:15:32.655Z,7.40
2017-08-16T11:17:59.283Z,7.00
2017-08-16T11:20:25.932Z,8.20
2017-08-16T11:22:52.538Z,5.13
2017-08-16T11:25:19.167Z,5.80
2017-08-16T11:27:45.799Z,8.23
2017-08-16T11:30:12.422Z,7.23
2017-08-16T11:32:39.041Z,8.03
2017-08-16T11:35:05.701Z,8.70
2017-08-16T11:37:32.318Z,10.63
2017-08-16T11:39:58.948Z,12.20
2017-08-16T11:42:25.589Z,11.70
2017-08-16T11:44:52.228Z,12.80
2017-08-16T11:47:18.867Z,10.93
2017-08-16T11:49:45.491Z,11.33
2017-08-16T11:52:12.146Z,11.60
2017-08-16T11:54:38.758Z,10.43
2017-08-16T11:57:05.382Z,14.07
2017-08-16T11:59:32.022Z,12.00
2017-08-16T12:01:58.635Z,8.87
2017-08-16T12:04:25.283Z,9.77
2017-08-16T12:06:51.944Z,8.73
2017-08-16T12:09:18.549Z,7.90
2017-08-16T12:11:45.190Z,7.10
2017-08-16T12:14:11.823Z,8.13
2017-08-16T12:16:38.459Z,7.30
2017-08-16T12:19:05.068Z,6.37
2017-08-16T12:21:31.677Z,7.40
2017-08-16T12:23:58.300Z,5.60
2017-08-16T12:26:24.927Z,7.47
2017-08-16T12:28:51.588Z,7.60
2017-08-16T12:31:18.219Z,4.73
2017-08-16T12:33:44.832Z,8.17
2017-08-16T12:36:11.469Z,10.10
2017-08-16T12:38:38.115Z,9.10
2017-08-16T12:41:04.789Z,9.53
2017-08-16T12:43:31.415Z,9.57
2017-08-16T12:45:58.019Z,6.80
2017-08-16T12:48:24.654Z,4.20
2017-08-16T12:50:51.277Z,6.37
2017-08-16T12:53:17.908Z,6.60
2017-08-16T12:55:44.541Z,4.40
2017-08-16T12:58:11.171Z,3.83
2017-08-16T13:00:37.788Z,3.93
2017-08-16T13:03:04.429Z,2.90
2017-08-16T13:05:31.037Z,2.07
2017-08-16T13:07:57.666Z,4.80
2017-08-16T13:10:24.303Z,2.90
2017-08-16T13:12:51.317Z,2.00
2017-08-16T13:15:17.928Z,2.37
2017-08-16T13:17:44.559Z,4.03
2017-08-16T13:20:11.208Z,3.60
2017-08-16T13:22:37.839Z,4.20
2017-08-16T13:25:04.467Z,3.67
2017-08-16T13:27:31.087Z,4.23
2017-08-16T13:29:57.708Z,3.40
2017-08-16T13:32:24.330Z,3.97
2017-08-16T13:34:50.939Z,3.67
2017-08-16T13:37:17.579Z,3.70
2017-08-16T13:39:44.216Z,3.90
2017-08-16T13:42:10.858Z,4.30
2017-08-16T13:44:37.488Z,4.13
2017-08-16T13:47:04.103Z,4.57
2017-08-16T13:49:30.735Z,3.50
2017-08-16T13:51:57.363Z,3.93
2017-08-16T13:54:24.012Z,3.70
2017-08-16T13:56:51.493Z,3.40
2017-08-16T13:59:18.142Z,3.20
2017-08-16T14:01:44.768Z,3.10
2017-08-16T14:04:11.408Z,7.37
2017-08-16T14:06:38.061Z,3.60
2017-08-16T14:09:04.698Z,3.80
2017-08-16T14:11:31.327Z,4.43
2017-08-16T14:13:57.988Z,4.30
2017-08-16T14:16:24.635Z,3.47
2017-08-16T14:18:51.249Z,3.37
2017-08-16T14:21:18.215Z,3.47
2017-08-16T14:23:44.819Z,2.90
2017-08-16T14:26:11.444Z,3.10
2017-08-16T14:28:38.076Z,2.50
2017-08-16T14:31:04.738Z,1.83
2017-08-16T14:33:31.375Z,2.73
2017-08-16T14:35:57.994Z,2.27
2017-08-16T14:38:24.625Z,2.90
2017-08-16T14:40:51.259Z,2.87
2017-08-16T14:43:17.876Z,2.50
2017-08-16T14:45:44.486Z,3.33
2017-08-16T14:48:11.112Z,3.13
2017-08-16T14:50:37.732Z,2.33
2017-08-16T14:53:04.408Z,2.30
2017-08-16T14:55:31.043Z,2.70
2017-08-16T14:57:57.674Z,2.50
2017-08-16T15:00:24.302Z,2.70
2017-08-16T15:02:50.919Z,2.67
2017-08-16T15:05:17.556Z,2.40
2017-08-16T15:07:44.175Z,2.50
2017-08-16T15:10:10.787Z,3.10
2017-08-16T15:12:37.421Z,3.30
2017-08-16T15:15:04.059Z,3.20
2017-08-16T15:17:30.702Z,2.40
2017-08-16T15:19:57.312Z,3.10
2017-08-16T15:22:23.967Z,3.13
2017-08-16T15:24:50.831Z,2.83
2017-08-16T15:27:17.469Z,3.00
2017-08-16T15:29:44.127Z,3.07
2017-08-16T15:32:10.759Z,3.80
2017-08-16T15:34:37.395Z,3.53
2017-08-16T15:37:04.016Z,3.37
2017-08-16T15:39:30.654Z,2.50
2017-08-16T15:41:57.288Z,3.00
2017-08-16T15:44:23.900Z,2.90
2017-08-16T15:46:50.567Z,2.67
2017-08-16T15:49:17.195Z,4.20
2017-08-16T15:51:44.173Z,2.77
2017-08-16T15:54:10.823Z,4.20
2017-08-16T15:56:39.694Z,3.97
2017-08-16T15:59:07.800Z,3.70
2017-08-16T16:01:34.441Z,3.40
2017-08-16T16:04:01.076Z,4.27
2017-08-16T16:06:27.737Z,4.50
2017-08-16T16:08:54.360Z,3.77
2017-08-16T16:11:21.006Z,4.00
2017-08-16T16:13:47.629Z,4.50
2017-08-16T16:16:14.270Z,4.57
2017-08-16T16:18:40.897Z,3.73
2017-08-16T16:21:07.510Z,4.50
2017-08-16T16:23:34.169Z,4.00
2017-08-16T16:26:00.780Z,4.30
2017-08-16T16:28:27.399Z,4.20
2017-08-16T16:30:54.038Z,4.10
2017-08-16T16:33:20.647Z,4.13
2017-08-16T16:35:47.272Z,4.20
2017-08-16T16:38:13.896Z,3.63
2017-08-16T16:40:40.556Z,4.13
2017-08-16T16:43:07.179Z,5.10
2017-08-16T16:45:33.820Z,3.70
2017-08-16T16:48:01.633Z,3.27
2017-08-16T16:50:28.605Z,3.57
2017-08-16T16:52:55.249Z,4.10
2017-08-16T16:55:21.884Z,3.77
2017-08-16T16:57:49.396Z,3.70
2017-08-16T17:00:16.024Z,4.10
2017-08-16T17:02:42.636Z,3.47
2017-08-16T17:05:09.284Z,3.70
2017-08-16T17:07:35.920Z,4.60
2017-08-16T17:10:02.566Z,3.37
2017-08-16T17:12:29.223Z,3.87
2017-08-16T17:14:55.871Z,4.20
2017-08-16T17:17:22.486Z,3.90
2017-08-16T17:19:49.120Z,4.23
2017-08-16T17:22:15.756Z,4.90
2017-08-16T17:24:42.386Z,4.27
2017-08-16T17:27:09.013Z,3.90
2017-08-16T17:29:35.656Z,4.00
2017-08-16T17:32:02.903Z,3.60
2017-08-16T17:34:29.616Z,4.17
2017-08-16T17:36:56.256Z,3.57
2017-08-16T17:39:22.889Z,4.40
2017-08-16T17:41:50.548Z,4.50
2017-08-16T17:44:17.183Z,4.20
2017-08-16T17:46:43.839Z,4.10
2017-08-16T17:49:10.502Z,4.37
2017-08-16T17:51:37.102Z,4.87
2017-08-16T17:54:03.713Z,4.83
2017-08-16T17:56:30.350Z,4.50
2017-08-16T17:58:57.506Z,3.60
2017-08-16T18:01:24.164Z,3.73
2017-08-16T18:03:51.127Z,4.80
2017-08-16T18:06:17.764Z,4.40
2017-08-16T18:08:44.395Z,4.03
2017-08-16T18:11:11.050Z,4.20
2017-08-16T18:13:37.659Z,4.10
2017-08-16T18:16:04.762Z,4.43
2017-08-16T18:18:31.422Z,4.93
2017-08-16T18:20:58.042Z,4.67
2017-08-16T18:23:24.683Z,4.90
2017-08-16T18:25:51.332Z,5.50
2017-08-16T18:28:17.956Z,5.63
2017-08-16T18:30:44.573Z,9.33
2017-08-16T18:33:11.215Z,6.47
2017-08-16T18:35:37.849Z,6.37
2017-08-16T18:38:04.467Z,4.30
2017-08-16T18:40:31.098Z,4.43
2017-08-16T18:42:57.729Z,4.53
2017-08-16T18:45:24.374Z,5.27
2017-08-16T18:47:51.022Z,4.90
2017-08-16T18:50:17.631Z,5.10
2017-08-16T18:52:44.271Z,4.40
2017-08-16T18:55:10.891Z,5.97
2017-08-16T18:57:37.531Z,4.83
2017-08-16T19:00:04.154Z,4.80
2017-08-16T19:02:30.797Z,6.23
2017-08-16T19:04:57.438Z,5.80
2017-08-16T19:07:24.062Z,5.67
2017-08-16T19:09:50.693Z,6.00
2017-08-16T19:12:17.323Z,6.13
2017-08-16T19:14:43.971Z,5.87
2017-08-16T19:17:10.597Z,5.50
2017-08-16T19:19:37.220Z,6.67
2017-08-16T19:22:03.873Z,6.00
2017-08-16T19:24:30.538Z,6.73
2017-08-16T19:26:57.211Z,8.00
2017-08-16T19:29:23.871Z,6.13
2017-08-16T19:31:50.492Z,6.90
2017-08-16T19:34:17.136Z,6.17
2017-08-16T19:36:46.467Z,5.90
2017-08-16T19:39:14.670Z,6.97
2017-08-16T19:41:43.672Z,7.60
2017-08-16T19:44:13.384Z,7.23
2017-08-16T19:46:41.672Z,7.90
2017-08-16T19:49:08.320Z,9.37
2017-08-16T19:51:34.991Z,8.67
2017-08-16T19:54:01.616Z,7.80
2017-08-16T19:56:28.545Z,8.97
2017-08-16T19:58:57.089Z,9.03
2017-08-16T20:01:24.057Z,8.50
2017-08-16T20:03:51.663Z,8.80
2017-08-16T20:06:18.577Z,8.67
2017-08-16T20:08:48.345Z,9.37
2017-08-16T20:11:15.332Z,8.57
2017-08-16T20:13:44.533Z,9.53
2017-08-16T20:16:13.403Z,9.20
2017-08-16T20:18:41.820Z,10.10
2017-08-16T20:21:08.455Z,9.37
2017-08-16T20:23:35.742Z,11.20
2017-08-16T20:26:02.420Z,10.20
2017-08-16T20:28:29.095Z,12.37
2017-08-16T20:30:55.758Z,12.13
2017-08-16T20:33:22.382Z,11.53
2017-08-16T20:35:49.026Z,13.13
2017-08-16T20:38:15.705Z,14.00
2017-08-16T20:40:42.638Z,14.57
2017-08-16T20:43:09.274Z,12.70
2017-08-16T20:45:35.929Z,12.87
2017-08-16T20:48:02.552Z,15.10
2017-08-16T20:50:29.207Z,14.20
2017-08-16T20:52:55.828Z,15.23
2017-08-16T20:55:22.450Z,14.30
2017-08-16T20:57:49.129Z,16.57
2017-08-16T21:00:15.811Z,14.80
2017-08-16T21:02:42.464Z,15.67
2017-08-16T21:05:09.115Z,16.73
2017-08-16T21:07:35.767Z,15.60
2017-08-16T21:10:02.412Z,17.17
2017-08-16T21:12:29.055Z,14.03
2017-08-16T21:14:56.015Z,15.87
2017-08-16T21:17:22.650Z,15.17
2017-08-16T21:19:49.299Z,16.00
2017-08-16T21:22:15.928Z,16.63
2017-08-16T21:24:42.560Z,15.27
2017-08-16T21:27:09.304Z,15.70
2017-08-16T21:29:35.926Z,17.80
2017-08-16T21:32:02.589Z,15.77
2017-08-16T21:34:29.221Z,14.80
2017-08-16T21:36:55.895Z,15.37
2017-08-16T21:39:22.535Z,17.03
2017-08-16T21:41:49.175Z,17.27
2017-08-16T21:44:15.834Z,16.30
2017-08-16T21:46:42.516Z,16.57
2017-08-16T21:49:09.188Z,17.00
2017-08-16T21:51:35.813Z,13.47
2017-08-16T21:56:38.509Z,17.20
2017-08-16T21:59:05.165Z,13.37
2017-08-16T22:01:31.783Z,17.83
2017-08-16T22:03:58.408Z,16.30
2017-08-16T22:06:25.076Z,16.47
2017-08-16T22:08:51.700Z,16.00
2017-08-16T22:11:18.387Z,11.70
2017-08-16T22:13:45.023Z,10.33
2017-08-16T22:16:11.688Z,12.13
2017-08-16T22:18:38.303Z,13.27
2017-08-16T22:21:04.945Z,10.20
2017-08-16T22:23:31.597Z,11.17
2017-08-16T22:25:58.236Z,11.93
2017-08-16T22:28:24.863Z,12.60
2017-08-16T22:30:51.486Z,13.97
2017-08-16T22:33:18.126Z,12.27
2017-08-16T22:35:44.761Z,13.63
2017-08-16T22:38:11.420Z,13.30
2017-08-16T22:40:38.057Z,14.10
2017-08-16T22:43:04.707Z,15.97
2017-08-16T22:45:31.367Z,10.27
2017-08-16T22:47:57.996Z,10.13
2017-08-16T22:50:24.636Z,10.27
2017-08-16T22:52:51.267Z,11.27
2017-08-16T22:55:17.903Z,13.37
2017-08-16T22:57:44.523Z,14.07
2017-08-16T23:00:11.201Z,14.40
2017-08-16T23:02:37.851Z,13.83
2017-08-16T23:05:04.488Z,12.67
2017-08-16T23:07:31.136Z,14.10
2017-08-16T23:09:58.104Z,11.60
2017-08-16T23:12:24.723Z,9.73
2017-08-16T23:14:51.372Z,10.07
2017-08-16T23:17:17.985Z,11.73
2017-08-16T23:19:44.616Z,14.10
2017-08-16T23:22:11.249Z,11.37
2017-08-16T23:24:37.876Z,13.67
2017-08-16T23:27:04.522Z,13.07
2017-08-16T23:29:31.144Z,11.73
2017-08-16T23:31:57.771Z,11.47
2017-08-16T23:34:24.406Z,10.87
2017-08-16T23:36:51.027Z,11.73
2017-08-16T23:39:17.677Z,12.23
2017-08-16T23:41:44.329Z,11.97
2017-08-16T23:44:11.007Z,10.17
2017-08-16T23:46:37.615Z,13.83
2017-08-16T23:49:04.257Z,12.00
2017-08-16T23:51:30.883Z,11.10
2017-08-16T23:53:57.527Z,14.37
2017-08-16T23:56:24.159Z,14.30
2017-08-16T23:58:50.794Z,14.00
